Time;durP1;ratioP1;P1;durP2;ratioP2;P2;SDS_P1;SDS_P2;PMS_P1;PMS_P2;Temp;Humidity;BMP_temperature;BMP_pressure;BME280_temperature;BME280_humidity;BME280_pressure;Samples;Min_cycle;Max_cycle;Signal;HPM_P1;HPM_P2
2022/12/03 00:01:22;;;;;;;1.95;1.42;;;0.30;99.90;;;;;;4412636;32;20129;-59
2022/12/03 00:03:48;;;;;;;4.75;2.95;;;0.30;99.90;;;;;;4404077;32;20078;-60
2022/12/03 00:06:13;;;;;;;1.27;1.17;;;0.30;99.90;;;;;;4397895;32;20089;-61
2022/12/03 00:08:39;;;;;;;1.52;1.25;;;0.30;99.90;;;;;;4410935;32;20070;-58
2022/12/03 00:11:04;;;;;;;2.92;2.58;;;0.20;99.90;;;;;;4414515;32;21247;-61
2022/12/03 00:13:30;;;;;;;1.75;1.65;;;0.20;99.90;;;;;;4412344;32;20082;-60
2022/12/03 00:15:55;;;;;;;1.17;1.08;;;0.30;99.90;;;;;;4416160;32;21229;-61
2022/12/03 00:18:21;;;;;;;3.58;3.22;;;0.30;99.90;;;;;;4399977;32;20094;-61
2022/12/03 00:20:46;;;;;;;1.40;1.27;;;0.30;99.90;;;;;;4415757;32;20098;-58
2022/12/03 00:23:12;;;;;;;4.65;2.37;;;0.30;99.90;;;;;;4417061;32;20085;-61
2022/12/03 00:25:37;;;;;;;7.32;3.12;;;0.30;99.90;;;;;;4421109;32;21056;-60
2022/12/03 00:28:03;;;;;;;4.22;1.95;;;0.30;99.90;;;;;;4416421;32;20077;-60
2022/12/03 00:30:28;;;;;;;9.18;3.50;;;0.30;99.90;;;;;;4413551;32;20062;-60
2022/12/03 00:32:53;;;;;;;2.97;2.65;;;0.30;99.90;;;;;;4412087;32;20087;-61
2022/12/03 00:35:19;;;;;;;1.95;1.80;;;0.40;99.90;;;;;;4399553;32;20100;-61
2022/12/03 00:37:44;;;;;;;1.27;1.23;;;0.40;99.90;;;;;;4409538;32;20140;-60
2022/12/03 00:40:11;;;;;;;1.33;1.23;;;0.40;99.90;;;;;;4417921;32;20074;-59
2022/12/03 00:42:36;;;;;;;1.52;1.42;;;0.40;99.90;;;;;;4403896;32;20125;-60
2022/12/03 00:45:02;;;;;;;0.57;0.57;;;0.40;99.90;;;;;;4417629;32;20085;-61
2022/12/03 00:47:27;;;;;;;3.25;2.25;;;0.40;99.90;;;;;;4414811;32;20075;-62
2022/12/03 00:49:53;;;;;;;1.62;1.52;;;0.40;99.90;;;;;;4415517;32;20112;-61
2022/12/03 00:52:18;;;;;;;4.47;2.95;;;0.30;99.90;;;;;;4415950;32;20145;-61
2022/12/03 00:54:44;;;;;;;0.80;0.80;;;0.40;99.90;;;;;;4418029;32;20046;-60
2022/12/03 00:57:09;;;;;;;1.70;1.42;;;0.30;99.90;;;;;;4416141;32;20067;-60
2022/12/03 00:59:35;;;;;;;2.62;2.42;;;0.30;99.90;;;;;;4418876;32;20077;-61
2022/12/03 01:02:00;;;;;;;2.08;1.87;;;0.40;99.90;;;;;;4417913;32;20129;-61
2022/12/03 01:04:26;;;;;;;24.95;3.78;;;0.40;99.90;;;;;;4401238;32;20135;-62
2022/12/03 01:06:51;;;;;;;2.87;1.73;;;0.30;99.90;;;;;;4403839;32;20062;-61
2022/12/03 01:09:16;;;;;;;2.20;2.00;;;0.30;99.90;;;;;;4416370;32;20124;-58
2022/12/03 01:11:42;;;;;;;2.33;2.10;;;0.30;99.90;;;;;;4417532;32;20090;-62
2022/12/03 01:14:11;;;;;;;1.48;1.37;;;0.30;99.90;;;;;;4417595;32;20166;-62
2022/12/03 01:16:37;;;;;;;7.87;1.95;;;0.30;99.90;;;;;;4418195;32;20090;-62
2022/12/03 01:19:05;;;;;;;3.25;1.17;;;0.30;99.90;;;;;;4389324;32;20137;-62
2022/12/03 01:21:31;;;;;;;0.93;0.93;;;0.20;99.90;;;;;;4403766;32;20078;-61
2022/12/03 01:23:56;;;;;;;4.37;1.70;;;0.20;99.90;;;;;;4405343;32;20132;-60
2022/12/03 01:26:22;;;;;;;6.53;1.77;;;0.20;99.90;;;;;;4406945;32;20066;-61
2022/12/03 01:28:47;;;;;;;1.73;1.62;;;0.10;99.90;;;;;;4418614;32;20050;-60
2022/12/03 01:32:17;;;;;;;5.50;4.00;;;0.20;99.90;;;;;;4417811;32;20725;-58
2022/12/03 01:33:58;;;;;;;2.47;2.28;;;0.20;99.90;;;;;;4393542;32;21079;-60
2022/12/03 01:36:24;;;;;;;1.60;1.50;;;0.20;99.90;;;;;;4385888;32;20091;-61
2022/12/03 01:38:49;;;;;;;0.70;0.70;;;0.20;99.90;;;;;;4414606;32;20103;-60
2022/12/03 01:41:18;;;;;;;1.10;1.10;;;0.20;99.90;;;;;;4417512;32;20082;-60
2022/12/03 01:43:44;;;;;;;1.98;1.87;;;0.20;99.90;;;;;;4393305;32;20069;-60
2022/12/03 01:46:15;;;;;;;1.60;1.45;;;0.30;99.90;;;;;;4405254;32;20877;-58
2022/12/03 01:48:40;;;;;;;2.05;1.65;;;0.20;99.90;;;;;;4405321;32;20046;-62
2022/12/03 01:51:06;;;;;;;1.87;1.77;;;0.20;99.90;;;;;;4418857;32;20268;-58
2022/12/03 01:53:32;;;;;;;2.50;2.30;;;0.20;99.90;;;;;;4416183;32;20069;-59
2022/12/03 01:55:57;;;;;;;4.07;2.17;;;0.20;99.90;;;;;;4419454;32;20041;-62
2022/12/03 01:58:27;;;;;;;31.87;2.55;;;0.20;99.90;;;;;;4415802;32;20074;-61
2022/12/03 02:00:52;;;;;;;7.60;2.33;;;0.30;99.90;;;;;;4402322;32;20062;-62
2022/12/03 02:03:21;;;;;;;3.50;2.60;;;0.30;99.90;;;;;;4399954;32;20103;-62
2022/12/03 02:05:47;;;;;;;1.52;1.42;;;0.30;99.90;;;;;;4383836;32;20050;-61
2022/12/03 02:08:34;;;;;;;1.10;1.05;;;0.40;99.90;;;;;;4411800;32;20094;-61
2022/12/03 02:11:04;;;;;;;2.65;1.85;;;0.30;99.90;;;;;;4404042;32;20156;-62
2022/12/03 02:13:30;;;;;;;3.97;1.83;;;0.30;99.90;;;;;;4405537;32;20098;-60
2022/12/03 02:15:57;;;;;;;1.17;1.10;;;0.30;99.90;;;;;;4405457;32;20113;-61
2022/12/03 02:18:22;;;;;;;1.48;1.40;;;0.30;99.90;;;;;;4415637;32;20082;-62
2022/12/03 02:21:01;;;;;;;3.58;2.00;;;0.40;99.90;;;;;;4417024;32;20113;-60
2022/12/03 02:23:38;;;;;;;1.25;1.23;;;0.40;99.90;;;;;;4416971;32;20062;-62
2022/12/03 02:26:03;;;;;;;1.08;1.08;;;0.30;99.90;;;;;;4416555;32;20269;-62
2022/12/03 02:28:29;;;;;;;5.72;2.35;;;0.30;99.90;;;;;;4416198;32;20069;-59
2022/12/03 02:30:55;;;;;;;2.17;1.30;;;0.30;99.90;;;;;;4414558;32;20069;-62
2022/12/03 02:33:20;;;;;;;3.28;1.67;;;0.30;99.90;;;;;;4406661;32;20086;-62
2022/12/03 02:35:46;;;;;;;10.52;3.95;;;0.30;99.90;;;;;;4398390;32;20119;-62
2022/12/03 02:38:18;;;;;;;0.88;0.88;;;0.20;99.90;;;;;;4408933;32;20105;-59
2022/12/03 02:40:45;;;;;;;2.20;2.00;;;0.30;99.90;;;;;;4401635;32;20065;-61
2022/12/03 02:43:13;;;;;;;3.53;2.03;;;0.30;99.90;;;;;;4415711;32;20110;-61
2022/12/03 02:45:42;;;;;;;1.52;1.42;;;0.30;99.90;;;;;;4419179;32;20087;-60
2022/12/03 02:48:14;;;;;;;1.75;1.42;;;0.30;99.90;;;;;;4388689;32;20097;-60
2022/12/03 02:50:43;;;;;;;3.17;1.95;;;0.30;99.90;;;;;;4402954;32;20078;-62
2022/12/03 02:53:17;;;;;;;3.03;2.12;;;0.20;99.90;;;;;;4417914;32;20417;-62
2022/12/03 02:55:44;;;;;;;2.37;1.50;;;0.30;99.90;;;;;;4401102;32;20070;-62
2022/12/03 02:58:10;;;;;;;2.83;2.50;;;0.40;99.90;;;;;;4417192;32;20081;-61
2022/12/03 03:00:36;;;;;;;1.17;1.17;;;0.40;99.90;;;;;;4416239;32;20093;-62
2022/12/03 03:03:04;;;;;;;2.97;2.45;;;0.30;99.90;;;;;;4397575;32;20188;-62
2022/12/03 03:05:31;;;;;;;4.12;2.97;;;0.30;99.90;;;;;;4382766;32;20233;-62
2022/12/03 03:07:58;;;;;;;4.95;2.62;;;0.40;99.90;;;;;;4407911;32;20116;-62
2022/12/03 03:10:24;;;;;;;0.68;0.68;;;0.40;99.90;;;;;;4403496;32;20117;-62
2022/12/03 03:12:52;;;;;;;27.92;3.72;;;0.30;99.90;;;;;;4390221;32;20097;-62
2022/12/03 03:15:18;;;;;;;2.37;1.40;;;0.30;99.90;;;;;;4401639;32;20128;-60
2022/12/03 03:17:44;;;;;;;2.08;1.95;;;0.20;99.90;;;;;;4414307;32;20074;-61
2022/12/03 03:20:10;;;;;;;1.55;1.45;;;0.20;99.90;;;;;;4417424;32;20098;-60
2022/12/03 03:22:39;;;;;;;4.07;2.05;;;0.30;99.90;;;;;;4415554;32;20474;-61
2022/12/03 03:25:08;;;;;;;0.70;0.70;;;0.30;99.90;;;;;;4402012;32;20067;-62
2022/12/03 03:27:34;;;;;;;1.67;1.58;;;0.20;99.90;;;;;;4391522;32;20097;-61
2022/12/03 03:29:59;;;;;;;3.90;2.65;;;0.20;99.90;;;;;;4402853;32;20118;-62
2022/12/03 03:32:27;;;;;;;2.55;1.98;;;0.20;99.90;;;;;;4400630;32;20059;-61
2022/12/03 03:34:53;;;;;;;2.83;1.65;;;0.20;99.90;;;;;;4383906;32;20070;-62
2022/12/03 03:37:19;;;;;;;1.35;1.27;;;0.10;99.90;;;;;;4403304;32;20078;-61
2022/12/03 03:39:44;;;;;;;0.90;0.90;;;0.20;99.90;;;;;;4401557;32;20082;-61
2022/12/03 03:42:10;;;;;;;4.12;2.42;;;0.20;99.90;;;;;;4413972;32;20510;-62
2022/12/03 03:44:35;;;;;;;2.37;1.37;;;0.20;99.90;;;;;;4403531;32;20086;-60
2022/12/03 03:47:01;;;;;;;0.65;0.65;;;0.20;99.90;;;;;;4413678;32;20308;-60
2022/12/03 03:49:27;;;;;;;1.95;1.45;;;0.10;99.90;;;;;;4413318;32;20126;-60
2022/12/03 03:51:53;;;;;;;17.10;2.65;;;0.10;99.90;;;;;;4413924;32;20077;-62
2022/12/03 03:54:18;;;;;;;15.55;1.85;;;0.10;99.90;;;;;;4401987;32;20107;-62
2022/12/03 03:56:44;;;;;;;2.90;1.60;;;0.20;99.90;;;;;;4415193;32;20074;-62
2022/12/03 03:59:09;;;;;;;6.35;2.62;;;0.20;99.90;;;;;;4416524;32;20070;-62
2022/12/03 04:01:35;;;;;;;1.45;1.40;;;0.20;99.90;;;;;;4413329;32;20081;-62
2022/12/03 04:04:01;;;;;;;1.40;1.30;;;0.30;99.90;;;;;;4401858;32;20083;-62
2022/12/03 04:06:26;;;;;;;2.25;2.00;;;0.20;99.90;;;;;;4397183;32;20077;-62
2022/12/03 04:08:52;;;;;;;1.30;1.20;;;0.20;99.90;;;;;;4412854;32;20058;-60
2022/12/03 04:13:17;;;;;;;0.77;0.77;;;0.30;99.90;;;;;;4412065;32;20078;-62
2022/12/03 04:14:03;;;;;;;3.97;3.03;;;0.30;99.90;;;;;;4401839;32;20098;-62
2022/12/03 04:16:28;;;;;;;5.30;3.65;;;0.20;99.90;;;;;;4413527;32;20106;-62
2022/12/03 04:18:54;;;;;;;1.00;1.00;;;0.20;99.90;;;;;;4413965;32;20093;-59
2022/12/03 04:22:53;;;;;;;1.60;1.50;;;0.20;99.90;;;;;;4414901;32;20086;-62
2022/12/03 04:24:08;;;;;;;1.87;1.75;;;0.20;99.90;;;;;;4391549;32;20063;-61
2022/12/03 04:28:50;;;;;;;4.50;3.05;;;0.20;99.90;;;;;;4389084;32;20062;-58
2022/12/03 04:29:20;;;;;;;2.55;1.77;;;0.20;99.90;;;;;;4404606;32;20066;-60
2022/12/03 04:35:47;;;;;;;3.60;2.15;;;0.10;99.90;;;;;;4376442;32;20078;-60
2022/12/03 04:37:17;;;;;;;2.55;2.05;;;0.10;99.90;;;;;;4390519;32;20581;-60
2022/12/03 04:39:42;;;;;;;2.72;2.35;;;0.10;99.90;;;;;;4413493;32;20062;-62
2022/12/03 04:42:08;;;;;;;0.90;0.90;;;0.10;99.90;;;;;;4413614;32;20174;-61
2022/12/03 04:44:35;;;;;;;4.55;2.45;;;0.10;99.90;;;;;;4414471;32;20125;-60
2022/12/03 04:47:04;;;;;;;4.53;1.85;;;0.10;99.90;;;;;;4413504;32;20114;-61
2022/12/03 04:49:30;;;;;;;2.10;1.35;;;0.10;99.90;;;;;;4403126;32;20086;-61
2022/12/03 04:51:55;;;;;;;2.53;2.12;;;0.20;99.90;;;;;;4400542;32;20070;-61
2022/12/03 04:54:21;;;;;;;2.67;2.33;;;0.20;99.90;;;;;;4414614;32;20094;-60
2022/12/03 04:56:47;;;;;;;3.12;2.03;;;0.20;99.90;;;;;;4400268;32;20102;-60
2022/12/03 04:59:13;;;;;;;2.00;1.75;;;0.20;99.90;;;;;;4413133;32;20161;-61
2022/12/03 05:01:39;;;;;;;7.55;3.00;;;0.20;99.90;;;;;;4413710;32;20434;-62
2022/12/03 05:04:04;;;;;;;1.23;1.12;;;0.20;99.90;;;;;;4406215;32;20105;-62
2022/12/03 05:06:30;;;;;;;2.10;1.77;;;0.10;99.90;;;;;;4398342;32;20062;-61
2022/12/03 05:08:55;;;;;;;1.75;1.55;;;0.10;99.90;;;;;;4412469;32;20138;-59
2022/12/03 05:11:21;;;;;;;4.37;2.95;;;0.10;99.90;;;;;;4417059;32;20090;-60
2022/12/03 05:13:46;;;;;;;10.15;2.62;;;0.10;99.90;;;;;;4417780;32;20105;-60
2022/12/03 05:16:11;;;;;;;1.58;1.48;;;0.20;99.90;;;;;;4414345;32;20074;-61
2022/12/03 05:18:37;;;;;;;1.98;1.37;;;0.20;99.90;;;;;;4416931;32;20087;-60
2022/12/03 05:21:03;;;;;;;16.35;1.87;;;0.20;99.90;;;;;;4418435;32;20086;-60
2022/12/03 05:23:28;;;;;;;10.00;3.58;;;0.20;99.90;;;;;;4415887;32;20054;-61
2022/12/03 05:25:53;;;;;;;1.98;1.87;;;0.20;99.90;;;;;;4418161;32;20117;-60
2022/12/03 05:28:21;;;;;;;0.62;0.62;;;0.20;99.90;;;;;;4417343;32;20110;-61
2022/12/03 05:30:46;;;;;;;4.85;2.22;;;0.10;99.90;;;;;;4414390;32;20082;-62
2022/12/03 05:33:12;;;;;;;0.90;0.88;;;0.10;99.90;;;;;;4410497;32;20111;-62
2022/12/03 05:35:37;;;;;;;11.02;2.75;;;0.10;99.90;;;;;;4398520;32;20109;-61
2022/12/03 05:38:03;;;;;;;1.20;1.17;;;0.10;99.90;;;;;;4409351;32;20061;-60
2022/12/03 05:40:28;;;;;;;5.20;2.28;;;0.10;99.90;;;;;;4415996;32;20057;-61
2022/12/03 05:42:54;;;;;;;17.30;1.83;;;0.20;99.90;;;;;;4416061;32;20082;-60
2022/12/03 05:45:30;;;;;;;1.40;1.35;;;0.10;99.90;;;;;;4416983;32;20054;-61
2022/12/03 05:47:56;;;;;;;0.68;0.68;;;0.10;99.90;;;;;;4401445;32;20196;-61
2022/12/03 05:50:25;;;;;;;0.65;0.65;;;0.10;99.90;;;;;;4402629;32;20098;-59
2022/12/03 05:52:51;;;;;;;3.08;1.92;;;0.10;99.90;;;;;;4401919;32;20081;-61
2022/12/03 05:55:17;;;;;;;1.70;1.60;;;0.10;99.90;;;;;;4415924;32;20127;-58
2022/12/03 05:57:43;;;;;;;1.30;1.25;;;0.00;99.90;;;;;;4405199;32;20095;-61
2022/12/03 06:00:17;;;;;;;1.50;1.40;;;0.00;99.90;;;;;;4417229;32;20073;-60
2022/12/03 06:02:42;;;;;;;1.70;1.55;;;0.00;99.90;;;;;;4401114;32;20458;-61
2022/12/03 06:05:10;;;;;;;2.90;2.05;;;0.00;99.90;;;;;;4400438;32;20077;-61
2022/12/03 06:07:35;;;;;;;0.80;0.80;;;0.00;99.90;;;;;;4390854;32;20078;-59
2022/12/03 06:10:01;;;;;;;3.03;1.65;;;-0.10;99.90;;;;;;4413965;32;20106;-61
2022/12/03 06:12:27;;;;;;;2.17;1.75;;;0.00;99.90;;;;;;4413547;32;20107;-61
2022/12/03 06:14:53;;;;;;;1.08;1.08;;;0.00;99.90;;;;;;4416642;32;20197;-61
2022/12/03 06:17:19;;;;;;;2.83;2.00;;;-0.10;99.90;;;;;;4414826;32;20189;-61
2022/12/03 06:19:44;;;;;;;1.30;1.25;;;-0.10;99.90;;;;;;4416630;32;20128;-58
2022/12/03 06:22:10;;;;;;;3.12;2.03;;;0.00;99.90;;;;;;4415959;32;20706;-61
2022/12/03 06:24:35;;;;;;;1.55;1.02;;;0.00;99.90;;;;;;4414971;32;20086;-61
2022/12/03 06:27:01;;;;;;;6.07;2.30;;;0.10;99.90;;;;;;4414787;32;20069;-59
2022/12/03 06:29:26;;;;;;;5.80;3.55;;;0.10;99.90;;;;;;4408653;32;20055;-59
2022/12/03 06:31:52;;;;;;;0.70;0.70;;;0.10;99.90;;;;;;4410239;32;20090;-60
2022/12/03 06:34:17;;;;;;;2.20;1.75;;;0.10;99.90;;;;;;4396339;32;20082;-61
2022/12/03 06:36:43;;;;;;;1.35;1.30;;;0.10;99.90;;;;;;4381536;32;20331;-61
2022/12/03 06:39:08;;;;;;;11.27;3.58;;;0.00;99.90;;;;;;4405523;32;20058;-60
2022/12/03 06:41:33;;;;;;;2.75;2.40;;;0.00;99.90;;;;;;4409727;32;20093;-59
2022/12/03 06:43:59;;;;;;;2.20;1.45;;;-0.10;99.90;;;;;;4410947;32;20206;-61
2022/12/03 06:46:24;;;;;;;2.50;2.05;;;-0.10;99.90;;;;;;4408871;32;20073;-61
2022/12/03 06:48:50;;;;;;;3.08;2.05;;;0.00;99.90;;;;;;4412361;32;20126;-61
2022/12/03 06:51:15;;;;;;;2.55;1.42;;;-0.10;99.90;;;;;;4415854;32;20073;-60
2022/12/03 06:53:41;;;;;;;6.20;2.25;;;-0.10;99.90;;;;;;4415109;32;20078;-61
2022/12/03 06:56:06;;;;;;;3.15;2.53;;;-0.10;99.90;;;;;;4413334;32;20050;-61
2022/12/03 06:58:32;;;;;;;1.20;1.17;;;-0.10;99.90;;;;;;4414087;32;20077;-59
2022/12/03 07:00:57;;;;;;;2.72;1.85;;;-0.10;99.90;;;;;;4415284;32;20091;-60
2022/12/03 07:03:23;;;;;;;4.07;1.75;;;0.00;99.90;;;;;;4409329;32;20148;-61
2022/12/03 07:05:48;;;;;;;1.35;1.25;;;-0.10;99.90;;;;;;4395612;32;20093;-61
2022/12/03 07:08:14;;;;;;;1.17;1.17;;;-0.10;99.90;;;;;;4412036;32;20031;-57
2022/12/03 07:10:39;;;;;;;8.10;2.67;;;-0.10;99.90;;;;;;4415542;32;20109;-58
2022/12/03 07:13:04;;;;;;;2.83;2.50;;;-0.10;99.90;;;;;;4414452;32;20093;-61
2022/12/03 07:15:30;;;;;;;2.33;2.12;;;-0.20;99.90;;;;;;4412594;32;20080;-60
2022/12/03 07:17:55;;;;;;;6.57;3.03;;;-0.10;99.90;;;;;;4400625;32;20070;-62
2022/12/03 07:20:21;;;;;;;5.20;2.92;;;-0.20;99.90;;;;;;4413837;32;20089;-61
2022/12/03 07:22:46;;;;;;;0.70;0.70;;;-0.20;99.90;;;;;;4413684;32;20107;-62
2022/12/03 07:25:12;;;;;;;2.40;1.95;;;-0.20;99.90;;;;;;4417615;32;20101;-61
2022/12/03 07:27:38;;;;;;;1.30;1.20;;;-0.20;99.90;;;;;;4400513;32;20079;-59
2022/12/03 07:30:06;;;;;;;4.85;3.10;;;-0.20;99.90;;;;;;4407955;32;20098;-61
2022/12/03 07:32:31;;;;;;;4.87;2.42;;;-0.20;99.90;;;;;;4393170;32;79875;-61
2022/12/03 07:34:57;;;;;;;1.45;1.37;;;-0.20;99.90;;;;;;4394978;32;20155;-61
2022/12/03 07:37:22;;;;;;;1.00;0.95;;;-0.20;99.90;;;;;;4402007;32;20106;-62
2022/12/03 07:39:48;;;;;;;2.60;2.17;;;-0.20;99.90;;;;;;4409427;32;20078;-61
2022/12/03 07:42:13;;;;;;;27.50;2.45;;;-0.10;99.90;;;;;;4410956;32;20542;-62
2022/12/03 07:44:39;;;;;;;0.90;0.90;;;-0.10;99.90;;;;;;4394961;32;20181;-62
2022/12/03 07:47:04;;;;;;;0.77;0.77;;;-0.10;99.90;;;;;;4406567;32;20034;-62
2022/12/03 07:49:29;;;;;;;1.37;1.27;;;0.00;99.90;;;;;;4410339;32;20130;-60
2022/12/03 07:51:56;;;;;;;1.02;1.02;;;-0.10;99.90;;;;;;4407367;32;20081;-61
2022/12/03 07:54:23;;;;;;;22.58;2.08;;;-0.20;99.90;;;;;;4397316;32;20073;-60
2022/12/03 07:56:48;;;;;;;3.92;2.72;;;-0.20;99.90;;;;;;4394724;32;20066;-61
2022/12/03 07:59:15;;;;;;;5.00;2.05;;;-0.20;99.90;;;;;;4408395;32;20047;-60
2022/12/03 08:01:41;;;;;;;2.05;1.90;;;-0.20;99.90;;;;;;4399142;32;20124;-61
2022/12/03 08:04:06;;;;;;;1.45;1.37;;;-0.20;99.90;;;;;;4398355;32;20065;-62
2022/12/03 08:06:31;;;;;;;3.92;2.40;;;-0.30;99.90;;;;;;4391375;32;20100;-61
2022/12/03 08:08:57;;;;;;;5.18;2.15;;;-0.30;99.90;;;;;;4406766;32;20106;-58
2022/12/03 08:11:22;;;;;;;4.05;2.60;;;-0.30;99.90;;;;;;4407939;32;20085;-60
2022/12/03 08:13:48;;;;;;;16.45;2.47;;;-0.30;99.90;;;;;;4410420;32;20113;-62
2022/12/03 08:16:19;;;;;;;0.98;0.98;;;-0.20;99.90;;;;;;4395438;32;20070;-59
2022/12/03 08:18:45;;;;;;;1.15;1.15;;;-0.20;99.90;;;;;;4408390;32;20079;-61
2022/12/03 08:21:14;;;;;;;1.58;1.48;;;-0.10;99.90;;;;;;4409695;32;20085;-61
2022/12/03 08:23:40;;;;;;;2.03;1.70;;;-0.10;99.90;;;;;;4397682;32;20089;-60
2022/12/03 08:26:26;;;;;;;3.72;2.50;;;-0.10;99.90;;;;;;4392904;32;20089;-61
2022/12/03 08:28:52;;;;;;;0.70;0.70;;;0.00;99.90;;;;;;4384814;32;20101;-61
2022/12/03 08:31:22;;;;;;;2.33;2.12;;;0.00;99.90;;;;;;4382128;32;20066;-59
2022/12/03 08:33:50;;;;;;;1.83;1.62;;;0.00;99.90;;;;;;4398839;32;20058;-62
2022/12/03 08:36:28;;;;;;;0.90;0.90;;;0.00;99.90;;;;;;4393005;32;20093;-61
2022/12/03 08:38:56;;;;;;;2.40;2.15;;;0.00;99.90;;;;;;4395292;32;20081;-60
2022/12/03 08:42:53;;;;;;;1.25;1.17;;;-0.10;99.90;;;;;;4397631;32;20086;-61
2022/12/03 08:44:19;;;;;;;2.40;1.98;;;-0.10;99.90;;;;;;4399930;32;20094;-61
2022/12/03 08:46:51;;;;;;;1.80;1.70;;;-0.20;99.90;;;;;;4408797;32;20058;-61
2022/12/03 08:49:19;;;;;;;3.42;2.58;;;-0.20;99.90;;;;;;4397609;32;20106;-60
2022/12/03 08:51:44;;;;;;;4.62;2.65;;;-0.10;99.90;;;;;;4409841;32;20074;-61
2022/12/03 08:54:16;;;;;;;2.70;2.20;;;-0.10;99.90;;;;;;4411981;32;20090;-59
2022/12/03 08:56:42;;;;;;;2.90;2.35;;;-0.10;99.90;;;;;;4408089;32;20126;-60
2022/12/03 08:59:29;;;;;;;2.50;2.12;;;0.00;99.90;;;;;;4411364;32;20083;-61
2022/12/03 09:01:56;;;;;;;7.55;2.97;;;0.00;99.90;;;;;;4398190;32;20173;-61
2022/12/03 09:04:30;;;;;;;9.52;2.97;;;0.00;99.90;;;;;;4398130;32;20149;-61
2022/12/03 09:06:56;;;;;;;1.70;1.60;;;0.00;99.90;;;;;;4387853;32;20086;-60
2022/12/03 09:09:22;;;;;;;2.30;1.95;;;0.10;99.90;;;;;;4395085;32;20085;-61
2022/12/03 09:11:49;;;;;;;13.02;2.90;;;0.10;99.90;;;;;;4388601;32;20117;-61
2022/12/03 09:14:16;;;;;;;4.90;1.80;;;0.10;99.90;;;;;;4386551;32;20153;-59
2022/12/03 09:16:42;;;;;;;3.72;2.90;;;0.10;99.90;;;;;;4414710;32;20089;-61
2022/12/03 09:19:07;;;;;;;1.75;1.37;;;0.10;99.90;;;;;;4412946;32;20074;-61
2022/12/03 09:21:33;;;;;;;3.22;2.22;;;0.10;99.90;;;;;;4412246;32;20110;-60
2022/12/03 09:23:58;;;;;;;10.63;2.83;;;0.20;99.90;;;;;;4400651;32;20078;-60
2022/12/03 09:26:25;;;;;;;5.25;2.67;;;0.30;99.90;;;;;;4412766;32;20046;-61
2022/12/03 09:28:51;;;;;;;5.30;2.75;;;0.30;99.90;;;;;;4412441;32;20137;-60
2022/12/03 09:31:16;;;;;;;1.55;1.45;;;0.20;99.90;;;;;;4412274;32;20066;-60
2022/12/03 09:33:42;;;;;;;9.05;4.60;;;0.20;99.90;;;;;;4403347;32;20062;-61
2022/12/03 09:36:07;;;;;;;8.77;3.15;;;0.30;99.90;;;;;;4392782;32;21626;-61
2022/12/03 09:38:33;;;;;;;1.83;1.73;;;0.30;99.90;;;;;;4409041;32;20077;-60
2022/12/03 09:40:59;;;;;;;2.50;2.20;;;0.30;99.90;;;;;;4388891;32;20078;-60
2022/12/03 09:43:29;;;;;;;3.22;2.92;;;0.30;99.90;;;;;;4413049;32;20546;-61
2022/12/03 09:45:55;;;;;;;1.77;1.67;;;0.30;99.90;;;;;;4393162;32;20655;-61
2022/12/03 09:48:20;;;;;;;0.95;0.95;;;0.20;99.90;;;;;;4411101;32;20094;-60
2022/12/03 09:50:47;;;;;;;5.75;3.25;;;0.30;99.90;;;;;;4410572;32;20074;-60
2022/12/03 09:53:19;;;;;;;5.53;2.92;;;0.30;99.90;;;;;;4398833;32;20200;-61
2022/12/03 09:55:45;;;;;;;1.55;1.45;;;0.30;99.90;;;;;;4398250;32;20152;-61
2022/12/03 09:58:13;;;;;;;1.70;1.60;;;0.30;99.90;;;;;;4402108;32;20201;-61
2022/12/03 10:00:40;;;;;;;8.35;4.55;;;0.30;99.90;;;;;;4386043;32;20179;-61
2022/12/03 10:03:07;;;;;;;1.02;1.02;;;0.20;99.90;;;;;;4383127;32;20089;-61
2022/12/03 10:05:33;;;;;;;0.80;0.80;;;0.20;99.90;;;;;;4379813;32;20178;-61
2022/12/03 10:08:10;;;;;;;1.25;1.23;;;0.30;99.90;;;;;;4393401;32;20077;-61
2022/12/03 10:10:38;;;;;;;3.72;2.90;;;0.30;99.90;;;;;;4397757;32;20090;-63
2022/12/03 10:13:04;;;;;;;1.35;1.33;;;0.20;99.90;;;;;;4413614;32;20066;-61
2022/12/03 10:15:31;;;;;;;2.28;1.90;;;0.30;99.90;;;;;;4399285;32;20080;-60
2022/12/03 10:17:57;;;;;;;3.40;2.55;;;0.20;99.90;;;;;;4397287;32;20061;-59
2022/12/03 10:20:24;;;;;;;5.78;2.95;;;0.20;99.90;;;;;;4410790;32;20322;-61
2022/12/03 10:22:49;;;;;;;1.92;1.83;;;0.30;99.90;;;;;;4400240;32;20062;-58
2022/12/03 10:25:18;;;;;;;9.60;2.62;;;0.30;99.90;;;;;;4408791;32;20151;-61
2022/12/03 10:27:56;;;;;;;0.93;0.93;;;0.20;99.90;;;;;;4400531;32;20112;-60
2022/12/03 10:30:25;;;;;;;1.62;1.35;;;0.30;99.90;;;;;;4398701;32;20120;-58
2022/12/03 10:32:51;;;;;;;12.07;1.65;;;0.30;99.90;;;;;;4407481;32;20071;-61
2022/12/03 10:35:20;;;;;;;3.53;2.60;;;0.20;99.90;;;;;;4394363;32;20094;-60
2022/12/03 10:38:06;;;;;;;2.47;2.20;;;0.20;99.90;;;;;;4402963;32;20094;-60
2022/12/03 10:40:35;;;;;;;6.12;3.40;;;0.20;99.90;;;;;;4399980;32;20800;-60
2022/12/03 10:43:22;;;;;;;4.35;3.37;;;0.20;99.90;;;;;;4397146;32;20788;-61
2022/12/03 10:45:49;;;;;;;4.12;3.17;;;0.10;99.90;;;;;;4396894;32;20134;-61
2022/12/03 10:48:25;;;;;;;2.97;1.85;;;0.10;99.90;;;;;;4410252;32;20102;-61
2022/12/03 10:50:55;;;;;;;19.52;3.42;;;0.20;99.90;;;;;;4409878;32;20132;-61
2022/12/03 10:53:23;;;;;;;3.55;2.80;;;0.20;99.90;;;;;;4410805;32;20083;-61
2022/12/03 10:55:50;;;;;;;9.65;3.92;;;0.20;99.90;;;;;;4386015;32;20079;-61
2022/12/03 10:58:23;;;;;;;8.88;1.90;;;0.20;99.90;;;;;;4409600;32;21279;-61
2022/12/03 11:00:50;;;;;;;5.65;2.20;;;0.30;99.90;;;;;;4399622;32;20081;-60
2022/12/03 11:03:18;;;;;;;3.28;2.80;;;0.20;99.90;;;;;;4391221;32;20074;-61
2022/12/03 11:05:44;;;;;;;2.15;1.95;;;0.30;99.90;;;;;;4369755;32;20074;-61
2022/12/03 11:08:30;;;;;;;6.32;2.30;;;0.30;99.90;;;;;;4411811;32;20099;-62
2022/12/03 11:10:59;;;;;;;5.50;2.95;;;0.20;99.90;;;;;;4399974;32;20129;-59
2022/12/03 11:13:34;;;;;;;3.97;1.83;;;0.20;99.90;;;;;;4402675;32;20127;-62
2022/12/03 11:16:01;;;;;;;7.68;3.08;;;0.20;99.90;;;;;;4417363;32;20043;-62
2022/12/03 11:18:45;;;;;;;5.22;2.25;;;0.20;99.90;;;;;;4403194;32;20185;-60
2022/12/03 11:21:12;;;;;;;1.98;1.85;;;0.10;99.90;;;;;;4416807;32;20102;-59
2022/12/03 11:23:47;;;;;;;4.50;2.78;;;0.20;99.90;;;;;;4391331;32;20095;-60
2022/12/03 11:26:15;;;;;;;7.35;2.60;;;0.30;99.90;;;;;;4415399;32;20082;-61
2022/12/03 11:28:58;;;;;;;2.90;1.83;;;0.30;99.90;;;;;;4404281;32;20087;-61
2022/12/03 11:31:42;;;;;;;1.62;1.52;;;0.30;99.90;;;;;;4403707;32;20106;-59
2022/12/03 11:34:30;;;;;;;1.20;1.15;;;0.40;99.90;;;;;;4403862;32;20290;-61
2022/12/03 11:37:13;;;;;;;1.27;1.25;;;0.40;99.90;;;;;;4396194;32;20087;-60
2022/12/03 11:39:58;;;;;;;1.25;1.20;;;0.40;99.90;;;;;;4413509;32;20078;-61
2022/12/03 11:42:27;;;;;;;5.25;2.05;;;0.40;99.90;;;;;;4410497;32;20081;-61
2022/12/03 11:45:10;;;;;;;1.37;1.33;;;0.40;99.90;;;;;;4415692;32;20521;-61
2022/12/03 11:47:40;;;;;;;4.12;2.80;;;0.40;99.90;;;;;;4416290;32;20075;-61
2022/12/03 11:50:31;;;;;;;8.95;4.25;;;0.40;99.90;;;;;;4390911;32;20089;-60
2022/12/03 11:53:07;;;;;;;2.10;1.95;;;0.50;99.90;;;;;;4406385;32;20038;-61
2022/12/03 11:55:38;;;;;;;1.55;1.45;;;0.60;99.90;;;;;;4392555;32;20280;-61
2022/12/03 11:58:14;;;;;;;2.05;1.92;;;0.50;99.90;;;;;;4416509;32;20069;-60
2022/12/03 12:00:49;;;;;;;8.77;3.83;;;0.50;99.90;;;;;;4406078;32;20113;-59
2022/12/03 12:03:26;;;;;;;43.25;2.65;;;0.50;99.90;;;;;;4398404;32;20094;-60
2022/12/03 12:06:14;;;;;;;2.90;2.30;;;0.50;99.90;;;;;;4385416;32;20101;-60
2022/12/03 12:08:54;;;;;;;8.82;3.30;;;0.60;99.90;;;;;;4407175;32;20077;-60
2022/12/03 12:11:29;;;;;;;10.40;2.42;;;0.60;99.90;;;;;;4400670;32;20070;-58
2022/12/03 12:13:58;;;;;;;3.20;2.90;;;0.50;99.90;;;;;;4402902;32;20325;-61
2022/12/03 12:16:52;;;;;;;2.28;2.15;;;0.50;99.90;;;;;;4389109;32;20050;-59
2022/12/03 12:19:42;;;;;;;3.60;2.75;;;0.60;99.90;;;;;;4392401;32;20109;-61
2022/12/03 12:22:15;;;;;;;2.15;1.48;;;0.50;99.90;;;;;;4414886;32;20136;-60
2022/12/03 12:24:45;;;;;;;7.18;3.50;;;0.50;99.90;;;;;;4401473;32;20082;-60
2022/12/03 12:27:13;;;;;;;3.33;2.33;;;0.50;99.90;;;;;;4417970;32;20091;-60
2022/12/03 12:29:40;;;;;;;3.50;2.40;;;0.50;99.90;;;;;;4403743;32;20195;-59
2022/12/03 12:32:13;;;;;;;1.98;1.83;;;0.60;99.90;;;;;;4403715;32;20060;-61
2022/12/03 12:34:45;;;;;;;3.33;1.90;;;0.60;99.90;;;;;;4386028;32;20441;-61
2022/12/03 12:37:20;;;;;;;7.22;2.80;;;0.50;99.90;;;;;;4404056;32;20069;-63
2022/12/03 12:39:46;;;;;;;11.12;3.58;;;0.60;99.90;;;;;;4396972;32;20126;-59
2022/12/03 12:42:28;;;;;;;1.50;1.40;;;0.50;99.90;;;;;;4414541;32;20109;-59
2022/12/03 12:45:04;;;;;;;8.05;3.00;;;0.60;99.90;;;;;;4401326;32;20066;-60
2022/12/03 12:47:30;;;;;;;2.65;2.33;;;0.50;99.90;;;;;;4411318;32;20090;-62
2022/12/03 12:49:56;;;;;;;2.22;1.83;;;0.50;99.90;;;;;;4400604;32;20085;-62
2022/12/03 12:52:21;;;;;;;2.03;1.52;;;0.50;99.90;;;;;;4411434;32;20168;-60
2022/12/03 12:54:47;;;;;;;3.10;1.85;;;0.50;99.90;;;;;;4415058;32;20125;-61
2022/12/03 12:57:18;;;;;;;1.45;1.35;;;0.50;99.90;;;;;;4413123;32;20129;-62
2022/12/03 12:59:43;;;;;;;3.83;2.55;;;0.50;99.90;;;;;;4414494;32;20141;-59
2022/12/03 13:02:35;;;;;;;0.95;0.93;;;0.50;99.90;;;;;;4415089;32;20074;-61
2022/12/03 13:05:02;;;;;;;2.30;2.03;;;0.50;99.90;;;;;;4399122;32;20094;-62